createdAt,value
2022-10-18T00:02:51.274Z,10.46
2022-10-18T00:07:52.912Z,10.45
2022-10-18T00:12:54.572Z,10.42
2022-10-18T00:17:56.250Z,10.38
2022-10-18T00:22:57.935Z,10.33
2022-10-18T00:27:59.591Z,10.28
2022-10-18T00:33:01.232Z,10.23
2022-10-18T00:38:02.958Z,10.16
2022-10-18T00:43:04.652Z,10.09
2022-10-18T00:48:06.627Z,10.05
2022-10-18T00:53:20.424Z,10.00
2022-10-18T00:58:22.081Z,9.95
2022-10-18T01:03:23.719Z,9.88
2022-10-18T01:08:41.059Z,9.82
2022-10-18T01:14:03.798Z,9.77
2022-10-18T01:19:17.825Z,9.71
2022-10-18T01:24:38.239Z,9.65
2022-10-18T01:30:18.301Z,9.61
2022-10-18T01:35:27.044Z,9.55
2022-10-18T01:40:30.663Z,9.48
2022-10-18T01:45:33.004Z,9.41
2022-10-18T01:50:35.278Z,9.33
2022-10-18T01:55:45.623Z,9.25
2022-10-18T02:01:00.416Z,9.18
2022-10-18T02:06:20.219Z,9.08
2022-10-18T02:11:22.109Z,9.01
2022-10-18T02:16:31.946Z,8.97
2022-10-18T02:21:34.989Z,8.93
2022-10-18T02:26:36.919Z,8.88
2022-10-18T02:31:48.560Z,8.84
2022-10-18T02:37:01.385Z,8.79
2022-10-18T02:42:08.567Z,8.74
2022-10-18T02:47:11.386Z,8.69
2022-10-18T02:52:13.093Z,8.64
2022-10-18T02:57:14.799Z,8.59
2022-10-18T03:02:16.539Z,8.55
2022-10-18T03:07:18.251Z,8.52
2022-10-18T03:12:19.973Z,8.50
2022-10-18T03:17:21.680Z,8.49
2022-10-18T03:22:25.264Z,8.49
2022-10-18T03:27:27.116Z,8.51
2022-10-18T03:32:29.015Z,8.54
2022-10-18T03:37:31.020Z,8.58
2022-10-18T03:42:32.923Z,8.64
2022-10-18T03:47:34.810Z,8.90
2022-10-18T03:52:36.553Z,9.13
2022-10-18T03:57:38.300Z,9.24
2022-10-18T04:02:40.334Z,9.26
2022-10-18T04:07:42.096Z,9.21
2022-10-18T04:12:43.719Z,9.14
2022-10-18T04:17:45.500Z,9.13
2022-10-18T04:22:50.842Z,9.12
2022-10-18T04:27:52.711Z,9.07
2022-10-18T04:32:54.320Z,9.10
2022-10-18T04:37:55.976Z,9.16
2022-10-18T04:42:57.629Z,9.28
2022-10-18T04:47:59.337Z,9.45
2022-10-18T04:53:00.992Z,9.59
2022-10-18T04:58:02.703Z,9.61
2022-10-18T05:03:04.464Z,9.63
2022-10-18T05:08:06.668Z,9.68
2022-10-18T05:13:08.323Z,9.80
2022-10-18T05:18:09.983Z,9.87
2022-10-18T05:23:11.772Z,9.90
2022-10-18T05:28:38.607Z,9.95
2022-10-18T05:33:36.094Z,10.07
2022-10-18T05:38:45.494Z,10.15
2022-10-18T05:43:47.202Z,10.16
2022-10-18T05:48:52.324Z,10.20
2022-10-18T05:53:54.907Z,10.30
2022-10-18T05:58:56.806Z,10.47
2022-10-18T06:03:58.524Z,10.62
2022-10-18T06:09:00.269Z,10.71
2022-10-18T06:14:02.403Z,10.80
2022-10-18T06:19:04.273Z,10.90
2022-10-18T06:24:06.373Z,11.00
2022-10-18T06:29:08.181Z,11.13
2022-10-18T06:34:09.971Z,11.30
2022-10-18T06:39:11.675Z,11.50
2022-10-18T06:44:14.540Z,11.69
2022-10-18T06:49:19.078Z,11.93
2022-10-18T06:54:21.187Z,12.18
2022-10-18T06:59:24.327Z,12.45
2022-10-18T07:04:30.497Z,12.69
2022-10-18T07:09:32.168Z,12.93
2022-10-18T07:14:33.829Z,13.18
2022-10-18T07:19:35.507Z,13.43
2022-10-18T07:24:37.241Z,13.68
2022-10-18T07:29:39.693Z,13.93
2022-10-18T07:34:41.398Z,14.21
2022-10-18T07:39:43.139Z,14.48
2022-10-18T07:44:44.858Z,14.75
2022-10-18T07:49:46.487Z,14.98
2022-10-18T07:59:57.195Z,15.46
2022-10-18T08:04:58.935Z,15.66
2022-10-18T08:10:00.878Z,15.90
2022-10-18T08:15:02.642Z,16.52
2022-10-18T08:20:12.340Z,16.64
2022-10-18T08:25:20.893Z,16.72
2022-10-18T08:30:23.787Z,16.77
2022-10-18T08:35:25.536Z,16.89
2022-10-18T08:40:27.871Z,17.00
2022-10-18T08:45:42.935Z,17.11
2022-10-18T08:50:49.111Z,17.23
2022-10-18T08:55:58.064Z,17.31
2022-10-18T09:01:29.395Z,17.38
2022-10-18T09:06:44.629Z,17.53
2022-10-18T09:12:08.259Z,17.67
2022-10-18T09:17:30.073Z,17.81
2022-10-18T09:22:37.932Z,17.88
2022-10-18T09:27:54.722Z,17.95
2022-10-18T09:33:24.675Z,18.10
2022-10-18T09:38:32.308Z,18.24
2022-10-18T09:44:01.469Z,18.39
2022-10-18T09:49:31.992Z,18.51
2022-10-18T09:54:46.777Z,18.59
2022-10-18T09:59:50.303Z,18.68
2022-10-18T10:04:56.430Z,18.74
2022-10-18T10:10:04.440Z,18.81
2022-10-18T10:15:12.605Z,18.87
2022-10-18T10:20:20.291Z,18.97
2022-10-18T10:25:38.886Z,19.08
2022-10-18T10:30:40.697Z,19.14
2022-10-18T10:35:53.034Z,19.25
2022-10-18T10:40:56.490Z,19.35
2022-10-18T10:46:09.622Z,19.40
2022-10-18T10:51:13.613Z,19.45
2022-10-18T10:56:23.911Z,19.54
2022-10-18T11:01:32.709Z,19.58
2022-10-18T11:06:44.758Z,19.61
2022-10-18T11:11:58.492Z,19.71
2022-10-18T11:17:34.358Z,19.79
2022-10-18T11:22:40.601Z,19.83
2022-10-18T11:28:29.057Z,19.83
2022-10-18T11:34:07.072Z,19.86
2022-10-18T11:39:18.845Z,19.87
2022-10-18T11:44:46.302Z,19.95
2022-10-18T11:50:09.844Z,20.01
2022-10-18T11:55:32.931Z,20.09
2022-10-18T12:00:46.481Z,20.20
2022-10-18T12:05:51.170Z,20.27
2022-10-18T12:11:04.999Z,20.32
2022-10-18T12:16:09.604Z,20.34
2022-10-18T12:21:12.840Z,20.30
2022-10-18T12:26:15.482Z,20.28
2022-10-18T12:31:42.761Z,20.24
2022-10-18T12:37:06.590Z,20.24
2022-10-18T12:42:22.612Z,20.31
2022-10-18T12:47:25.919Z,20.35
2022-10-18T12:52:29.984Z,20.42
2022-10-18T12:57:53.768Z,20.43
2022-10-18T13:03:14.382Z,20.36
2022-10-18T13:08:31.711Z,20.34
2022-10-18T13:14:12.412Z,20.31
2022-10-18T13:19:26.721Z,20.31
2022-10-18T13:24:43.912Z,20.28
2022-10-18T13:30:14.723Z,20.27
2022-10-18T13:36:20.054Z,20.26
2022-10-18T13:41:31.386Z,20.19
2022-10-18T13:46:48.489Z,20.15
2022-10-18T13:52:14.173Z,20.13
2022-10-18T13:57:24.792Z,20.09
2022-10-18T14:02:57.748Z,20.04
2022-10-18T14:08:11.295Z,19.98
2022-10-18T14:13:26.649Z,19.89
2022-10-18T14:18:33.271Z,19.79
2022-10-18T14:23:40.109Z,19.68
2022-10-18T14:28:59.029Z,19.56
2022-10-18T14:34:01.790Z,19.42
2022-10-18T14:39:06.435Z,19.29
2022-10-18T14:44:16.464Z,19.17
2022-10-18T14:49:20.476Z,19.05
2022-10-18T14:54:32.412Z,18.92
2022-10-18T14:59:47.020Z,18.80
2022-10-18T15:04:57.117Z,18.66
2022-10-18T15:10:02.728Z,18.51
2022-10-18T15:15:04.839Z,18.34
2022-10-18T15:20:28.523Z,18.18
2022-10-18T15:25:32.855Z,18.00
2022-10-18T15:30:42.844Z,17.83
2022-10-18T15:35:44.675Z,17.66
2022-10-18T15:40:47.145Z,17.51
2022-10-18T15:45:52.811Z,17.37
2022-10-18T15:51:02.152Z,17.27
2022-10-18T15:56:07.807Z,17.19
2022-10-18T16:01:18.684Z,17.09
2022-10-18T16:06:20.449Z,16.97
2022-10-18T16:11:25.322Z,16.84
2022-10-18T16:16:29.097Z,16.74
2022-10-18T16:21:36.617Z,16.68
2022-10-18T16:26:38.730Z,16.63
2022-10-18T16:31:40.735Z,16.61
2022-10-18T16:36:42.543Z,16.59
2022-10-18T16:41:45.495Z,16.57
2022-10-18T16:46:50.949Z,16.49
2022-10-18T16:51:56.026Z,16.41
2022-10-18T16:56:57.966Z,16.35
2022-10-18T17:02:05.720Z,16.31
2022-10-18T17:07:07.748Z,16.29
2022-10-18T17:12:09.614Z,16.27
2022-10-18T17:17:12.575Z,16.23
2022-10-18T17:22:14.334Z,16.19
2022-10-18T17:27:17.630Z,16.14
2022-10-18T17:32:19.569Z,16.09
2022-10-18T17:37:21.379Z,16.05
2022-10-18T17:42:23.222Z,16.03
2022-10-18T17:47:25.728Z,16.00
2022-10-18T17:52:27.464Z,15.98
2022-10-18T17:57:29.244Z,15.98
2022-10-18T18:02:31.237Z,16.02
2022-10-18T18:07:33.267Z,16.08
2022-10-18T18:12:35.352Z,16.12
2022-10-18T18:17:56.013Z,16.13
2022-10-18T18:22:58.419Z,16.12
2022-10-18T18:28:03.812Z,16.12
2022-10-18T18:33:09.235Z,16.14
2022-10-18T18:38:11.187Z,16.15
2022-10-18T18:43:23.787Z,16.14
2022-10-18T18:48:29.213Z,16.11
2022-10-18T18:53:31.131Z,15.99
2022-10-18T18:58:35.595Z,15.68
2022-10-18T19:03:38.780Z,15.29
2022-10-18T19:08:40.739Z,14.95
2022-10-18T19:13:42.944Z,14.65
2022-10-18T19:18:57.536Z,14.38
2022-10-18T19:23:59.774Z,14.22
2022-10-18T19:29:11.452Z,14.10
2022-10-18T19:34:14.764Z,13.97
2022-10-18T19:39:21.946Z,13.83
2022-10-18T19:44:27.501Z,13.68
2022-10-18T19:49:29.458Z,13.58
2022-10-18T19:54:31.315Z,13.47
2022-10-18T19:59:34.221Z,13.37
2022-10-18T20:04:38.313Z,13.29
2022-10-18T20:09:40.341Z,13.21
2022-10-18T20:14:42.206Z,13.07
2022-10-18T20:19:44.115Z,13.00
2022-10-18T20:24:46.024Z,12.94
2022-10-18T20:29:47.872Z,12.88
2022-10-18T20:34:49.599Z,12.83
2022-10-18T20:39:51.548Z,12.80
2022-10-18T20:44:53.374Z,12.78
2022-10-18T20:49:55.198Z,12.75
2022-10-18T20:54:57.010Z,12.72
2022-10-18T20:59:58.819Z,12.70
2022-10-18T21:05:00.567Z,12.65
2022-10-18T21:10:02.362Z,12.61
2022-10-18T21:15:08.790Z,12.57
2022-10-18T21:20:11.486Z,12.54
2022-10-18T21:25:13.488Z,12.51
2022-10-18T21:30:15.289Z,12.46
2022-10-18T21:35:17.158Z,12.39
2022-10-18T21:40:18.959Z,12.34
2022-10-18T21:45:20.778Z,12.28
2022-10-18T21:50:22.599Z,12.25
2022-10-18T21:55:24.383Z,12.22
2022-10-18T22:00:26.157Z,12.16
2022-10-18T22:05:27.915Z,12.11
2022-10-18T22:10:30.313Z,12.08
2022-10-18T22:15:32.175Z,12.07
2022-10-18T22:20:33.973Z,12.06
2022-10-18T22:25:36.376Z,12.07
2022-10-18T22:30:38.897Z,12.09
2022-10-18T22:35:40.638Z,12.09
2022-10-18T22:40:42.701Z,12.07
2022-10-18T22:45:44.475Z,12.07
2022-10-18T22:50:46.240Z,12.06
2022-10-18T22:55:49.459Z,12.06
2022-10-18T23:00:51.211Z,12.06
2022-10-18T23:05:53.011Z,12.07
2022-10-18T23:10:57.395Z,12.09
2022-10-18T23:16:04.637Z,12.11
2022-10-18T23:21:09.704Z,12.12
2022-10-18T23:26:14.785Z,12.13
2022-10-18T23:31:18.407Z,12.13
2022-10-18T23:36:21.114Z,12.13
2022-10-18T23:41:22.978Z,12.10
2022-10-18T23:46:24.994Z,12.05
2022-10-18T23:51:26.810Z,12.04
2022-10-18T23:56:28.577Z,12.04
